sensor_id;sensor_type;location;lat;lon;timestamp;P1;durP1;ratioP1;P2;durP2;ratioP2
15055;SDS011;7626;42.674;23.284;2022-12-07T00:01:50;29.30;;;24.47;;
15055;SDS011;7626;42.674;23.284;2022-12-07T00:04:17;30.53;;;23.93;;
15055;SDS011;7626;42.674;23.284;2022-12-07T00:06:46;28.47;;;23.87;;
15055;SDS011;7626;42.674;23.284;2022-12-07T00:09:17;30.13;;;23.23;;
15055;SDS011;7626;42.674;23.284;2022-12-07T00:11:44;29.57;;;23.63;;
15055;SDS011;7626;42.674;23.284;2022-12-07T00:14:14;27.23;;;22.53;;
15055;SDS011;7626;42.674;23.284;2022-12-07T00:16:42;32.17;;;24.50;;
15055;SDS011;7626;42.674;23.284;2022-12-07T00:19:10;28.23;;;22.17;;
15055;SDS011;7626;42.674;23.284;2022-12-07T00:21:38;31.07;;;22.83;;
15055;SDS011;7626;42.674;23.284;2022-12-07T00:24:06;30.03;;;23.37;;
15055;SDS011;7626;42.674;23.284;2022-12-07T00:26:34;32.00;;;24.10;;
15055;SDS011;7626;42.674;23.284;2022-12-07T00:29:02;28.57;;;23.70;;
15055;SDS011;7626;42.674;23.284;2022-12-07T00:31:31;29.83;;;23.47;;
15055;SDS011;7626;42.674;23.284;2022-12-07T00:34:01;29.67;;;23.97;;
15055;SDS011;7626;42.674;23.284;2022-12-07T00:36:28;29.93;;;23.93;;
15055;SDS011;7626;42.674;23.284;2022-12-07T00:38:54;31.57;;;24.63;;
15055;SDS011;7626;42.674;23.284;2022-12-07T00:41:25;33.90;;;25.40;;
15055;SDS011;7626;42.674;23.284;2022-12-07T00:43:53;31.90;;;25.27;;
15055;SDS011;7626;42.674;23.284;2022-12-07T00:46:21;29.80;;;24.50;;
15055;SDS011;7626;42.674;23.284;2022-12-07T00:48:49;31.83;;;24.93;;
15055;SDS011;7626;42.674;23.284;2022-12-07T00:51:17;31.10;;;24.83;;
15055;SDS011;7626;42.674;23.284;2022-12-07T00:53:46;30.10;;;24.07;;
15055;SDS011;7626;42.674;23.284;2022-12-07T00:56:14;28.73;;;24.17;;
15055;SDS011;7626;42.674;23.284;2022-12-07T00:58:43;30.57;;;23.43;;
15055;SDS011;7626;42.674;23.284;2022-12-07T01:01:15;30.10;;;23.20;;
15055;SDS011;7626;42.674;23.284;2022-12-07T01:03:42;29.83;;;23.33;;
15055;SDS011;7626;42.674;23.284;2022-12-07T01:06:08;30.63;;;24.80;;
15055;SDS011;7626;42.674;23.284;2022-12-07T01:08:35;30.73;;;23.63;;
15055;SDS011;7626;42.674;23.284;2022-12-07T01:11:03;31.70;;;24.70;;
15055;SDS011;7626;42.674;23.284;2022-12-07T01:13:31;29.33;;;23.33;;
15055;SDS011;7626;42.674;23.284;2022-12-07T01:16:00;32.07;;;24.70;;
15055;SDS011;7626;42.674;23.284;2022-12-07T01:18:30;31.83;;;25.50;;
15055;SDS011;7626;42.674;23.284;2022-12-07T01:20:59;32.30;;;24.60;;
15055;SDS011;7626;42.674;23.284;2022-12-07T01:23:26;31.50;;;25.67;;
15055;SDS011;7626;42.674;23.284;2022-12-07T01:25:54;32.20;;;24.97;;
15055;SDS011;7626;42.674;23.284;2022-12-07T01:28:22;31.67;;;25.47;;
15055;SDS011;7626;42.674;23.284;2022-12-07T01:30:54;32.67;;;26.13;;
15055;SDS011;7626;42.674;23.284;2022-12-07T01:33:23;34.00;;;26.20;;
15055;SDS011;7626;42.674;23.284;2022-12-07T01:35:50;27.60;;;23.80;;
15055;SDS011;7626;42.674;23.284;2022-12-07T01:38:17;30.40;;;23.87;;
15055;SDS011;7626;42.674;23.284;2022-12-07T01:40:43;30.77;;;23.47;;
15055;SDS011;7626;42.674;23.284;2022-12-07T01:43:13;29.07;;;24.13;;
15055;SDS011;7626;42.674;23.284;2022-12-07T01:45:43;31.93;;;24.13;;
15055;SDS011;7626;42.674;23.284;2022-12-07T01:48:11;28.90;;;24.07;;
15055;SDS011;7626;42.674;23.284;2022-12-07T01:50:42;28.33;;;23.67;;
15055;SDS011;7626;42.674;23.284;2022-12-07T01:53:11;29.73;;;24.00;;
15055;SDS011;7626;42.674;23.284;2022-12-07T01:55:41;30.20;;;24.10;;
15055;SDS011;7626;42.674;23.284;2022-12-07T01:58:10;28.47;;;22.73;;
15055;SDS011;7626;42.674;23.284;2022-12-07T02:00:38;27.63;;;23.17;;
15055;SDS011;7626;42.674;23.284;2022-12-07T02:03:06;27.33;;;22.80;;
15055;SDS011;7626;42.674;23.284;2022-12-07T02:05:37;29.37;;;22.77;;
15055;SDS011;7626;42.674;23.284;2022-12-07T02:08:07;27.63;;;22.63;;
15055;SDS011;7626;42.674;23.284;2022-12-07T02:10:36;27.03;;;21.27;;
15055;SDS011;7626;42.674;23.284;2022-12-07T02:13:03;26.17;;;22.23;;
15055;SDS011;7626;42.674;23.284;2022-12-07T02:15:34;26.23;;;21.90;;
15055;SDS011;7626;42.674;23.284;2022-12-07T02:18:12;27.33;;;21.83;;
15055;SDS011;7626;42.674;23.284;2022-12-07T02:20:45;25.33;;;20.97;;
15055;SDS011;7626;42.674;23.284;2022-12-07T02:29:38;27.40;;;21.67;;
15055;SDS011;7626;42.674;23.284;2022-12-07T02:32:07;28.30;;;21.77;;
15055;SDS011;7626;42.674;23.284;2022-12-07T02:34:42;26.87;;;21.77;;
15055;SDS011;7626;42.674;23.284;2022-12-07T02:37:19;27.20;;;21.27;;
15055;SDS011;7626;42.674;23.284;2022-12-07T02:39:55;24.10;;;21.13;;
15055;SDS011;7626;42.674;23.284;2022-12-07T02:42:29;25.33;;;21.67;;
15055;SDS011;7626;42.674;23.284;2022-12-07T02:45:00;26.70;;;21.67;;
15055;SDS011;7626;42.674;23.284;2022-12-07T02:47:27;26.70;;;22.03;;
15055;SDS011;7626;42.674;23.284;2022-12-07T02:49:57;26.30;;;20.73;;
15055;SDS011;7626;42.674;23.284;2022-12-07T02:52:24;28.07;;;22.17;;
15055;SDS011;7626;42.674;23.284;2022-12-07T02:54:51;25.50;;;20.87;;
15055;SDS011;7626;42.674;23.284;2022-12-07T02:57:24;27.67;;;21.97;;
15055;SDS011;7626;42.674;23.284;2022-12-07T03:00:03;25.07;;;21.10;;
15055;SDS011;7626;42.674;23.284;2022-12-07T03:02:37;26.57;;;20.70;;
15055;SDS011;7626;42.674;23.284;2022-12-07T03:05:13;26.73;;;20.33;;
15055;SDS011;7626;42.674;23.284;2022-12-07T03:07:52;26.63;;;20.87;;
15055;SDS011;7626;42.674;23.284;2022-12-07T03:10:27;25.63;;;20.90;;
15055;SDS011;7626;42.674;23.284;2022-12-07T03:13:09;24.37;;;20.47;;
15055;SDS011;7626;42.674;23.284;2022-12-07T03:15:47;27.47;;;21.50;;
15055;SDS011;7626;42.674;23.284;2022-12-07T03:18:18;28.37;;;22.00;;
15055;SDS011;7626;42.674;23.284;2022-12-07T03:20:48;27.07;;;21.67;;
15055;SDS011;7626;42.674;23.284;2022-12-07T03:23:18;29.70;;;22.80;;
15055;SDS011;7626;42.674;23.284;2022-12-07T03:25:47;26.50;;;21.67;;
15055;SDS011;7626;42.674;23.284;2022-12-07T03:28:19;27.43;;;21.87;;
15055;SDS011;7626;42.674;23.284;2022-12-07T03:30:51;30.03;;;22.13;;
15055;SDS011;7626;42.674;23.284;2022-12-07T03:33:22;27.33;;;20.57;;
15055;SDS011;7626;42.674;23.284;2022-12-07T03:35:55;25.73;;;21.57;;
15055;SDS011;7626;42.674;23.284;2022-12-07T03:38:28;25.17;;;19.93;;
15055;SDS011;7626;42.674;23.284;2022-12-07T03:41:00;23.77;;;20.30;;
15055;SDS011;7626;42.674;23.284;2022-12-07T03:43:32;26.57;;;20.97;;
15055;SDS011;7626;42.674;23.284;2022-12-07T03:46:04;24.87;;;20.30;;
15055;SDS011;7626;42.674;23.284;2022-12-07T03:48:38;23.00;;;20.10;;
15055;SDS011;7626;42.674;23.284;2022-12-07T03:51:11;26.53;;;20.53;;
15055;SDS011;7626;42.674;23.284;2022-12-07T03:53:46;23.90;;;18.87;;
15055;SDS011;7626;42.674;23.284;2022-12-07T03:56:19;26.93;;;20.67;;
15055;SDS011;7626;42.674;23.284;2022-12-07T03:58:47;22.67;;;19.80;;
15055;SDS011;7626;42.674;23.284;2022-12-07T04:01:18;25.37;;;19.70;;
15055;SDS011;7626;42.674;23.284;2022-12-07T04:03:45;26.27;;;21.03;;
15055;SDS011;7626;42.674;23.284;2022-12-07T04:06:13;26.60;;;21.63;;
15055;SDS011;7626;42.674;23.284;2022-12-07T04:08:41;28.80;;;21.80;;
15055;SDS011;7626;42.674;23.284;2022-12-07T04:11:09;27.83;;;22.20;;
15055;SDS011;7626;42.674;23.284;2022-12-07T04:13:36;24.53;;;20.43;;
15055;SDS011;7626;42.674;23.284;2022-12-07T04:16:19;29.17;;;21.83;;
15055;SDS011;7626;42.674;23.284;2022-12-07T04:18:48;27.60;;;21.20;;
15055;SDS011;7626;42.674;23.284;2022-12-07T04:21:16;27.43;;;21.30;;
15055;SDS011;7626;42.674;23.284;2022-12-07T04:23:45;25.93;;;21.53;;
15055;SDS011;7626;42.674;23.284;2022-12-07T04:26:13;26.07;;;21.80;;
15055;SDS011;7626;42.674;23.284;2022-12-07T04:28:40;28.17;;;22.27;;
15055;SDS011;7626;42.674;23.284;2022-12-07T04:31:08;26.77;;;22.30;;
15055;SDS011;7626;42.674;23.284;2022-12-07T04:33:38;26.77;;;22.07;;
15055;SDS011;7626;42.674;23.284;2022-12-07T04:36:06;27.80;;;22.57;;
15055;SDS011;7626;42.674;23.284;2022-12-07T04:38:34;25.40;;;21.27;;
15055;SDS011;7626;42.674;23.284;2022-12-07T04:41:04;27.77;;;22.53;;
15055;SDS011;7626;42.674;23.284;2022-12-07T04:43:33;26.73;;;22.10;;
15055;SDS011;7626;42.674;23.284;2022-12-07T04:46:02;26.10;;;23.30;;
15055;SDS011;7626;42.674;23.284;2022-12-07T04:48:30;26.37;;;21.80;;
15055;SDS011;7626;42.674;23.284;2022-12-07T04:51:00;30.33;;;22.47;;
15055;SDS011;7626;42.674;23.284;2022-12-07T04:53:29;30.20;;;22.87;;
15055;SDS011;7626;42.674;23.284;2022-12-07T04:55:57;30.30;;;23.43;;
15055;SDS011;7626;42.674;23.284;2022-12-07T04:58:27;33.93;;;23.40;;
15055;SDS011;7626;42.674;23.284;2022-12-07T05:00:55;26.70;;;22.30;;
15055;SDS011;7626;42.674;23.284;2022-12-07T05:03:22;28.93;;;22.63;;
15055;SDS011;7626;42.674;23.284;2022-12-07T05:05:50;29.57;;;22.50;;
15055;SDS011;7626;42.674;23.284;2022-12-07T05:08:18;27.30;;;21.73;;
15055;SDS011;7626;42.674;23.284;2022-12-07T05:10:46;31.13;;;22.63;;
15055;SDS011;7626;42.674;23.284;2022-12-07T05:13:16;30.87;;;23.10;;
15055;SDS011;7626;42.674;23.284;2022-12-07T05:15:43;56.63;;;24.80;;
15055;SDS011;7626;42.674;23.284;2022-12-07T05:18:10;54.03;;;22.80;;
15055;SDS011;7626;42.674;23.284;2022-12-07T05:20:37;43.53;;;23.43;;
15055;SDS011;7626;42.674;23.284;2022-12-07T05:23:04;40.67;;;22.13;;
15055;SDS011;7626;42.674;23.284;2022-12-07T05:25:34;33.33;;;21.40;;
15055;SDS011;7626;42.674;23.284;2022-12-07T05:28:03;34.70;;;23.13;;
15055;SDS011;7626;42.674;23.284;2022-12-07T05:30:32;34.57;;;22.47;;
15055;SDS011;7626;42.674;23.284;2022-12-07T05:33:02;30.37;;;21.73;;
15055;SDS011;7626;42.674;23.284;2022-12-07T05:35:30;29.77;;;20.87;;
15055;SDS011;7626;42.674;23.284;2022-12-07T05:37:59;26.70;;;21.13;;
15055;SDS011;7626;42.674;23.284;2022-12-07T05:40:25;27.53;;;20.83;;
15055;SDS011;7626;42.674;23.284;2022-12-07T05:45:38;28.87;;;21.40;;
15055;SDS011;7626;42.674;23.284;2022-12-07T05:48:06;26.07;;;20.93;;
15055;SDS011;7626;42.674;23.284;2022-12-07T05:50:34;28.03;;;21.70;;
15055;SDS011;7626;42.674;23.284;2022-12-07T05:53:02;27.07;;;21.63;;
15055;SDS011;7626;42.674;23.284;2022-12-07T05:55:30;24.53;;;20.73;;
15055;SDS011;7626;42.674;23.284;2022-12-07T05:57:57;27.80;;;21.60;;
15055;SDS011;7626;42.674;23.284;2022-12-07T06:00:44;25.07;;;21.13;;
15055;SDS011;7626;42.674;23.284;2022-12-07T06:03:12;28.40;;;22.33;;
15055;SDS011;7626;42.674;23.284;2022-12-07T06:05:40;27.30;;;22.17;;
15055;SDS011;7626;42.674;23.284;2022-12-07T06:08:08;27.87;;;21.70;;
15055;SDS011;7626;42.674;23.284;2022-12-07T06:10:35;33.20;;;21.57;;
15055;SDS011;7626;42.674;23.284;2022-12-07T06:13:02;46.43;;;22.63;;
15055;SDS011;7626;42.674;23.284;2022-12-07T06:15:28;34.47;;;20.47;;
15055;SDS011;7626;42.674;23.284;2022-12-07T06:17:56;48.17;;;23.33;;
15055;SDS011;7626;42.674;23.284;2022-12-07T06:20:22;50.50;;;22.97;;
15055;SDS011;7626;42.674;23.284;2022-12-07T06:22:49;44.70;;;23.40;;
15055;SDS011;7626;42.674;23.284;2022-12-07T06:25:16;48.70;;;24.07;;
15055;SDS011;7626;42.674;23.284;2022-12-07T06:27:43;45.40;;;23.63;;
15055;SDS011;7626;42.674;23.284;2022-12-07T06:30:10;46.80;;;24.80;;
15055;SDS011;7626;42.674;23.284;2022-12-07T06:32:37;41.03;;;25.30;;
15055;SDS011;7626;42.674;23.284;2022-12-07T06:35:05;41.50;;;25.67;;
15055;SDS011;7626;42.674;23.284;2022-12-07T06:37:32;42.03;;;24.70;;
15055;SDS011;7626;42.674;23.284;2022-12-07T06:39:59;36.63;;;24.70;;
15055;SDS011;7626;42.674;23.284;2022-12-07T06:42:26;35.83;;;25.63;;
15055;SDS011;7626;42.674;23.284;2022-12-07T06:44:53;35.13;;;25.50;;
15055;SDS011;7626;42.674;23.284;2022-12-07T06:47:20;33.27;;;25.10;;
15055;SDS011;7626;42.674;23.284;2022-12-07T06:49:47;34.00;;;24.67;;
15055;SDS011;7626;42.674;23.284;2022-12-07T06:52:15;32.90;;;25.10;;
15055;SDS011;7626;42.674;23.284;2022-12-07T06:54:41;36.90;;;25.90;;
15055;SDS011;7626;42.674;23.284;2022-12-07T06:57:09;34.40;;;25.97;;
15055;SDS011;7626;42.674;23.284;2022-12-07T06:59:36;33.97;;;26.17;;
15055;SDS011;7626;42.674;23.284;2022-12-07T07:02:03;33.33;;;27.10;;
15055;SDS011;7626;42.674;23.284;2022-12-07T07:04:30;34.57;;;26.03;;
15055;SDS011;7626;42.674;23.284;2022-12-07T07:06:56;35.33;;;28.30;;
15055;SDS011;7626;42.674;23.284;2022-12-07T07:09:25;40.23;;;29.43;;
15055;SDS011;7626;42.674;23.284;2022-12-07T07:11:52;36.07;;;28.17;;
15055;SDS011;7626;42.674;23.284;2022-12-07T07:14:18;37.23;;;30.33;;
15055;SDS011;7626;42.674;23.284;2022-12-07T07:16:46;37.40;;;29.37;;
15055;SDS011;7626;42.674;23.284;2022-12-07T07:19:13;38.93;;;28.80;;
15055;SDS011;7626;42.674;23.284;2022-12-07T07:21:39;37.33;;;28.93;;
15055;SDS011;7626;42.674;23.284;2022-12-07T07:24:06;37.13;;;30.97;;
15055;SDS011;7626;42.674;23.284;2022-12-07T07:26:35;36.67;;;31.17;;
15055;SDS011;7626;42.674;23.284;2022-12-07T07:29:01;39.10;;;31.60;;
15055;SDS011;7626;42.674;23.284;2022-12-07T07:31:28;37.07;;;31.60;;
15055;SDS011;7626;42.674;23.284;2022-12-07T07:33:55;42.10;;;33.90;;
15055;SDS011;7626;42.674;23.284;2022-12-07T07:36:22;43.97;;;33.67;;
15055;SDS011;7626;42.674;23.284;2022-12-07T07:38:49;42.50;;;35.70;;
15055;SDS011;7626;42.674;23.284;2022-12-07T07:41:15;44.07;;;35.77;;
15055;SDS011;7626;42.674;23.284;2022-12-07T07:43:48;45.03;;;35.80;;
15055;SDS011;7626;42.674;23.284;2022-12-07T07:46:18;44.27;;;36.40;;
15055;SDS011;7626;42.674;23.284;2022-12-07T07:48:44;44.73;;;36.07;;
15055;SDS011;7626;42.674;23.284;2022-12-07T07:51:11;42.80;;;34.67;;
15055;SDS011;7626;42.674;23.284;2022-12-07T07:53:38;41.20;;;34.20;;
15055;SDS011;7626;42.674;23.284;2022-12-07T07:56:04;44.63;;;33.43;;
15055;SDS011;7626;42.674;23.284;2022-12-07T07:58:31;44.67;;;35.13;;
15055;SDS011;7626;42.674;23.284;2022-12-07T08:01:04;40.33;;;33.47;;
15055;SDS011;7626;42.674;23.284;2022-12-07T08:03:31;44.10;;;32.67;;
15055;SDS011;7626;42.674;23.284;2022-12-07T08:05:58;40.27;;;32.00;;
15055;SDS011;7626;42.674;23.284;2022-12-07T08:08:25;41.37;;;33.83;;
15055;SDS011;7626;42.674;23.284;2022-12-07T08:10:52;40.57;;;32.70;;
15055;SDS011;7626;42.674;23.284;2022-12-07T08:13:19;43.83;;;33.03;;
15055;SDS011;7626;42.674;23.284;2022-12-07T08:15:48;38.87;;;30.80;;
15055;SDS011;7626;42.674;23.284;2022-12-07T08:18:16;40.27;;;31.30;;
15055;SDS011;7626;42.674;23.284;2022-12-07T08:20:43;40.63;;;31.37;;
15055;SDS011;7626;42.674;23.284;2022-12-07T08:23:10;40.90;;;32.00;;
15055;SDS011;7626;42.674;23.284;2022-12-07T08:25:37;39.10;;;31.67;;
15055;SDS011;7626;42.674;23.284;2022-12-07T08:28:04;42.23;;;31.90;;
15055;SDS011;7626;42.674;23.284;2022-12-07T08:30:31;37.63;;;31.03;;
15055;SDS011;7626;42.674;23.284;2022-12-07T08:32:58;40.47;;;31.20;;
15055;SDS011;7626;42.674;23.284;2022-12-07T08:35:26;38.90;;;30.00;;
15055;SDS011;7626;42.674;23.284;2022-12-07T08:37:53;38.80;;;30.77;;
15055;SDS011;7626;42.674;23.284;2022-12-07T08:40:22;37.53;;;31.20;;
15055;SDS011;7626;42.674;23.284;2022-12-07T08:42:49;43.67;;;32.03;;
15055;SDS011;7626;42.674;23.284;2022-12-07T08:45:16;42.97;;;33.50;;
15055;SDS011;7626;42.674;23.284;2022-12-07T08:47:45;38.30;;;30.57;;
15055;SDS011;7626;42.674;23.284;2022-12-07T08:50:17;39.10;;;30.93;;
15055;SDS011;7626;42.674;23.284;2022-12-07T08:52:45;39.90;;;31.20;;
15055;SDS011;7626;42.674;23.284;2022-12-07T08:55:17;39.97;;;31.53;;
15055;SDS011;7626;42.674;23.284;2022-12-07T08:57:44;45.57;;;32.60;;
15055;SDS011;7626;42.674;23.284;2022-12-07T09:00:12;40.47;;;32.63;;
15055;SDS011;7626;42.674;23.284;2022-12-07T09:02:39;44.30;;;32.50;;
15055;SDS011;7626;42.674;23.284;2022-12-07T09:05:07;42.20;;;33.27;;
15055;SDS011;7626;42.674;23.284;2022-12-07T09:07:34;43.10;;;33.70;;
15055;SDS011;7626;42.674;23.284;2022-12-07T09:10:04;45.47;;;33.67;;
15055;SDS011;7626;42.674;23.284;2022-12-07T09:12:32;44.70;;;33.17;;
15055;SDS011;7626;42.674;23.284;2022-12-07T09:14:58;41.80;;;32.77;;
15055;SDS011;7626;42.674;23.284;2022-12-07T09:17:26;41.67;;;32.27;;
15055;SDS011;7626;42.674;23.284;2022-12-07T09:19:53;41.07;;;32.33;;
15055;SDS011;7626;42.674;23.284;2022-12-07T09:22:20;38.17;;;32.03;;
15055;SDS011;7626;42.674;23.284;2022-12-07T09:24:46;40.70;;;31.97;;
15055;SDS011;7626;42.674;23.284;2022-12-07T09:27:15;39.80;;;30.43;;
15055;SDS011;7626;42.674;23.284;2022-12-07T09:29:42;38.43;;;30.03;;
15055;SDS011;7626;42.674;23.284;2022-12-07T09:32:09;36.83;;;29.47;;
15055;SDS011;7626;42.674;23.284;2022-12-07T09:34:36;36.90;;;29.40;;
15055;SDS011;7626;42.674;23.284;2022-12-07T09:37:03;37.13;;;28.93;;
15055;SDS011;7626;42.674;23.284;2022-12-07T09:39:30;38.70;;;29.40;;
15055;SDS011;7626;42.674;23.284;2022-12-07T09:41:56;35.97;;;28.87;;
15055;SDS011;7626;42.674;23.284;2022-12-07T09:44:26;38.80;;;29.07;;
15055;SDS011;7626;42.674;23.284;2022-12-07T09:46:54;36.97;;;28.23;;
15055;SDS011;7626;42.674;23.284;2022-12-07T09:49:22;35.37;;;28.23;;
15055;SDS011;7626;42.674;23.284;2022-12-07T09:51:59;37.40;;;28.37;;
15055;SDS011;7626;42.674;23.284;2022-12-07T09:54:27;41.77;;;28.63;;
15055;SDS011;7626;42.674;23.284;2022-12-07T09:56:56;35.43;;;28.07;;
15055;SDS011;7626;42.674;23.284;2022-12-07T09:59:23;32.73;;;27.33;;
15055;SDS011;7626;42.674;23.284;2022-12-07T10:01:51;37.20;;;26.33;;
15055;SDS011;7626;42.674;23.284;2022-12-07T10:04:18;35.63;;;27.57;;
15055;SDS011;7626;42.674;23.284;2022-12-07T10:06:47;40.13;;;29.50;;
15055;SDS011;7626;42.674;23.284;2022-12-07T10:09:17;33.07;;;26.80;;
15055;SDS011;7626;42.674;23.284;2022-12-07T10:12:04;34.23;;;27.23;;
15055;SDS011;7626;42.674;23.284;2022-12-07T10:14:34;33.63;;;25.90;;
15055;SDS011;7626;42.674;23.284;2022-12-07T10:17:08;34.43;;;26.47;;
15055;SDS011;7626;42.674;23.284;2022-12-07T10:20:08;35.77;;;26.90;;
15055;SDS011;7626;42.674;23.284;2022-12-07T10:22:56;33.27;;;27.10;;
15055;SDS011;7626;42.674;23.284;2022-12-07T10:25:25;33.13;;;26.70;;
15055;SDS011;7626;42.674;23.284;2022-12-07T10:28:00;34.43;;;26.50;;
15055;SDS011;7626;42.674;23.284;2022-12-07T10:30:45;36.03;;;26.80;;
15055;SDS011;7626;42.674;23.284;2022-12-07T10:36:18;33.77;;;26.87;;
15055;SDS011;7626;42.674;23.284;2022-12-07T10:38:50;37.90;;;27.27;;
15055;SDS011;7626;42.674;23.284;2022-12-07T10:41:18;33.13;;;26.33;;
15055;SDS011;7626;42.674;23.284;2022-12-07T10:43:46;35.80;;;25.83;;
15055;SDS011;7626;42.674;23.284;2022-12-07T10:49:29;32.10;;;26.23;;
15055;SDS011;7626;42.674;23.284;2022-12-07T10:52:26;35.37;;;25.73;;
15055;SDS011;7626;42.674;23.284;2022-12-07T10:55:11;38.07;;;25.17;;
15055;SDS011;7626;42.674;23.284;2022-12-07T10:57:56;36.20;;;26.43;;
15055;SDS011;7626;42.674;23.284;2022-12-07T11:00:43;33.03;;;24.60;;
15055;SDS011;7626;42.674;23.284;2022-12-07T11:03:28;33.53;;;26.17;;
15055;SDS011;7626;42.674;23.284;2022-12-07T11:06:25;30.00;;;24.80;;
15055;SDS011;7626;42.674;23.284;2022-12-07T11:09:08;27.57;;;23.53;;
15055;SDS011;7626;42.674;23.284;2022-12-07T11:11:59;33.57;;;24.67;;
15055;SDS011;7626;42.674;23.284;2022-12-07T11:14:33;29.90;;;23.97;;
15055;SDS011;7626;42.674;23.284;2022-12-07T11:17:09;30.57;;;22.70;;
15055;SDS011;7626;42.674;23.284;2022-12-07T11:19:54;31.17;;;23.00;;
15055;SDS011;7626;42.674;23.284;2022-12-07T11:22:36;30.77;;;22.97;;
15055;SDS011;7626;42.674;23.284;2022-12-07T11:25:16;31.67;;;23.83;;
15055;SDS011;7626;42.674;23.284;2022-12-07T11:27:56;32.27;;;23.13;;
15055;SDS011;7626;42.674;23.284;2022-12-07T11:30:57;31.47;;;23.23;;
15055;SDS011;7626;42.674;23.284;2022-12-07T11:33:33;29.10;;;23.73;;
15055;SDS011;7626;42.674;23.284;2022-12-07T11:36:08;29.67;;;22.97;;
15055;SDS011;7626;42.674;23.284;2022-12-07T11:39:08;30.67;;;22.67;;
15055;SDS011;7626;42.674;23.284;2022-12-07T11:41:46;28.20;;;21.73;;
15055;SDS011;7626;42.674;23.284;2022-12-07T11:44:23;29.53;;;22.13;;
15055;SDS011;7626;42.674;23.284;2022-12-07T11:47:00;28.07;;;22.03;;
15055;SDS011;7626;42.674;23.284;2022-12-07T11:49:38;31.20;;;22.60;;
15055;SDS011;7626;42.674;23.284;2022-12-07T11:52:24;26.50;;;21.23;;
15055;SDS011;7626;42.674;23.284;2022-12-07T11:55:19;28.43;;;21.27;;
15055;SDS011;7626;42.674;23.284;2022-12-07T11:57:56;27.63;;;21.27;;
15055;SDS011;7626;42.674;23.284;2022-12-07T12:00:31;26.97;;;20.83;;
15055;SDS011;7626;42.674;23.284;2022-12-07T12:03:03;29.53;;;21.60;;
15055;SDS011;7626;42.674;23.284;2022-12-07T12:05:37;29.47;;;20.93;;
15055;SDS011;7626;42.674;23.284;2022-12-07T12:08:11;29.73;;;21.63;;
15055;SDS011;7626;42.674;23.284;2022-12-07T12:10:50;30.10;;;21.93;;
15055;SDS011;7626;42.674;23.284;2022-12-07T12:13:29;26.33;;;21.00;;
15055;SDS011;7626;42.674;23.284;2022-12-07T12:16:25;27.43;;;21.03;;
15055;SDS011;7626;42.674;23.284;2022-12-07T12:19:16;28.00;;;20.83;;
15055;SDS011;7626;42.674;23.284;2022-12-07T12:21:55;25.30;;;20.87;;
15055;SDS011;7626;42.674;23.284;2022-12-07T12:24:31;26.53;;;20.73;;
15055;SDS011;7626;42.674;23.284;2022-12-07T12:27:08;26.30;;;21.67;;
15055;SDS011;7626;42.674;23.284;2022-12-07T12:29:50;26.57;;;20.50;;
15055;SDS011;7626;42.674;23.284;2022-12-07T12:32:21;28.30;;;19.47;;
15055;SDS011;7626;42.674;23.284;2022-12-07T12:35:02;26.83;;;18.80;;
15055;SDS011;7626;42.674;23.284;2022-12-07T12:37:46;25.67;;;19.27;;
15055;SDS011;7626;42.674;23.284;2022-12-07T12:49:37;24.27;;;19.57;;
15055;SDS011;7626;42.674;23.284;2022-12-07T12:58:36;26.33;;;20.13;;
15055;SDS011;7626;42.674;23.284;2022-12-07T13:07:01;27.60;;;19.50;;
15055;SDS011;7626;42.674;23.284;2022-12-07T13:09:30;25.53;;;19.03;;
15055;SDS011;7626;42.674;23.284;2022-12-07T13:12:02;25.47;;;19.20;;
15055;SDS011;7626;42.674;23.284;2022-12-07T13:14:51;24.07;;;18.87;;
15055;SDS011;7626;42.674;23.284;2022-12-07T13:23:12;26.17;;;19.07;;
15055;SDS011;7626;42.674;23.284;2022-12-07T13:25:48;23.67;;;19.73;;
15055;SDS011;7626;42.674;23.284;2022-12-07T13:28:25;27.37;;;20.43;;
15055;SDS011;7626;42.674;23.284;2022-12-07T13:31:15;23.77;;;18.97;;
15055;SDS011;7626;42.674;23.284;2022-12-07T13:34:03;26.10;;;19.93;;
15055;SDS011;7626;42.674;23.284;2022-12-07T13:36:33;23.97;;;19.40;;
15055;SDS011;7626;42.674;23.284;2022-12-07T13:39:11;25.37;;;18.13;;
15055;SDS011;7626;42.674;23.284;2022-12-07T13:41:48;24.37;;;19.43;;
15055;SDS011;7626;42.674;23.284;2022-12-07T13:44:18;23.13;;;17.40;;
15055;SDS011;7626;42.674;23.284;2022-12-07T13:46:49;24.53;;;18.13;;
15055;SDS011;7626;42.674;23.284;2022-12-07T13:49:23;24.17;;;17.70;;
15055;SDS011;7626;42.674;23.284;2022-12-07T13:52:06;21.80;;;16.80;;
15055;SDS011;7626;42.674;23.284;2022-12-07T13:54:46;23.50;;;16.47;;
15055;SDS011;7626;42.674;23.284;2022-12-07T13:57:14;21.33;;;15.73;;
15055;SDS011;7626;42.674;23.284;2022-12-07T13:59:41;20.03;;;15.90;;
15055;SDS011;7626;42.674;23.284;2022-12-07T14:02:17;19.40;;;15.73;;
15055;SDS011;7626;42.674;23.284;2022-12-07T14:04:48;21.80;;;16.57;;
15055;SDS011;7626;42.674;23.284;2022-12-07T14:07:21;22.47;;;17.47;;
15055;SDS011;7626;42.674;23.284;2022-12-07T14:10:25;26.97;;;16.30;;
15055;SDS011;7626;42.674;23.284;2022-12-07T14:12:52;23.37;;;16.30;;
15055;SDS011;7626;42.674;23.284;2022-12-07T14:15:20;24.93;;;16.07;;
15055;SDS011;7626;42.674;23.284;2022-12-07T14:17:51;19.63;;;15.03;;
15055;SDS011;7626;42.674;23.284;2022-12-07T14:20:29;20.20;;;15.30;;
15055;SDS011;7626;42.674;23.284;2022-12-07T14:22:58;21.37;;;15.40;;
15055;SDS011;7626;42.674;23.284;2022-12-07T14:25:44;17.53;;;14.60;;
15055;SDS011;7626;42.674;23.284;2022-12-07T14:28:25;18.40;;;14.07;;
15055;SDS011;7626;42.674;23.284;2022-12-07T14:30:55;18.53;;;13.63;;
15055;SDS011;7626;42.674;23.284;2022-12-07T14:33:24;20.40;;;14.93;;
15055;SDS011;7626;42.674;23.284;2022-12-07T14:35:52;19.97;;;14.80;;
15055;SDS011;7626;42.674;23.284;2022-12-07T14:38:26;18.87;;;14.30;;
15055;SDS011;7626;42.674;23.284;2022-12-07T14:40:54;23.30;;;14.70;;
15055;SDS011;7626;42.674;23.284;2022-12-07T14:43:43;21.20;;;15.17;;
15055;SDS011;7626;42.674;23.284;2022-12-07T14:46:09;18.80;;;14.97;;
15055;SDS011;7626;42.674;23.284;2022-12-07T14:48:37;20.83;;;15.40;;
15055;SDS011;7626;42.674;23.284;2022-12-07T14:51:05;19.27;;;14.90;;
15055;SDS011;7626;42.674;23.284;2022-12-07T14:53:36;25.87;;;16.17;;
15055;SDS011;7626;42.674;23.284;2022-12-07T14:56:07;20.30;;;14.57;;
15055;SDS011;7626;42.674;23.284;2022-12-07T14:58:33;19.13;;;14.73;;
15055;SDS011;7626;42.674;23.284;2022-12-07T15:01:02;19.17;;;14.77;;
15055;SDS011;7626;42.674;23.284;2022-12-07T15:03:28;21.97;;;15.20;;
15055;SDS011;7626;42.674;23.284;2022-12-07T15:05:57;19.27;;;14.37;;
15055;SDS011;7626;42.674;23.284;2022-12-07T15:08:24;23.60;;;14.90;;
15055;SDS011;7626;42.674;23.284;2022-12-07T15:10:53;19.80;;;15.47;;
15055;SDS011;7626;42.674;23.284;2022-12-07T15:13:20;21.17;;;14.17;;
15055;SDS011;7626;42.674;23.284;2022-12-07T15:16:07;22.80;;;14.40;;
15055;SDS011;7626;42.674;23.284;2022-12-07T15:18:36;23.37;;;15.50;;
15055;SDS011;7626;42.674;23.284;2022-12-07T15:21:03;31.33;;;15.43;;
15055;SDS011;7626;42.674;23.284;2022-12-07T15:23:30;21.17;;;15.77;;
15055;SDS011;7626;42.674;23.284;2022-12-07T15:25:58;24.57;;;14.63;;
15055;SDS011;7626;42.674;23.284;2022-12-07T15:28:25;23.00;;;14.87;;